createdAt,value
2022-09-23T00:00:34.661Z,75.97
2022-09-23T00:03:01.743Z,75.47
2022-09-23T00:05:29.949Z,75.82
2022-09-23T00:07:57.144Z,75.83
2022-09-23T00:10:25.502Z,75.59
2022-09-23T00:12:53.055Z,75.61
2022-09-23T00:15:21.483Z,75.51
2022-09-23T00:17:48.399Z,75.14
2022-09-23T00:20:15.235Z,75.33
2022-09-23T00:22:42.026Z,75.56
2022-09-23T00:25:10.333Z,75.38
2022-09-23T00:27:37.972Z,75.60
2022-09-23T00:30:07.233Z,75.45
2022-09-23T00:32:36.595Z,76.31
2022-09-23T00:35:04.244Z,75.99
2022-09-23T00:37:31.535Z,75.60
2022-09-23T00:40:00.838Z,76.48
2022-09-23T00:42:27.683Z,76.61
2022-09-23T00:44:56.078Z,76.58
2022-09-23T00:47:29.522Z,76.25
2022-09-23T00:50:03.521Z,76.52
2022-09-23T00:52:32.223Z,77.65
2022-09-23T00:55:02.562Z,78.31
2022-09-23T00:57:31.276Z,77.17
2022-09-23T00:59:58.385Z,77.02
2022-09-23T01:02:26.202Z,76.35
2022-09-23T01:04:53.136Z,76.62
2022-09-23T01:07:21.913Z,75.89
2022-09-23T01:09:49.737Z,76.66
2022-09-23T01:12:34.477Z,76.64
2022-09-23T01:15:11.531Z,76.78
2022-09-23T01:21:37.594Z,76.64
2022-09-23T01:24:26.399Z,76.92
2022-09-23T01:27:00.980Z,76.35
2022-09-23T01:29:53.594Z,76.62
2022-09-23T01:32:32.180Z,76.61
2022-09-23T01:35:07.319Z,76.31
2022-09-23T01:37:41.043Z,76.72
2022-09-23T01:40:15.288Z,75.72
2022-09-23T01:42:47.788Z,76.75
2022-09-23T01:45:21.546Z,77.32
2022-09-23T01:47:55.219Z,76.79
2022-09-23T01:50:45.537Z,76.80
2022-09-23T01:53:19.697Z,75.82
2022-09-23T01:55:51.631Z,76.33
2022-09-23T01:58:22.290Z,76.93
2022-09-23T02:00:54.159Z,76.84
2022-09-23T02:03:27.372Z,77.26
2022-09-23T02:05:59.377Z,77.56
2022-09-23T02:08:31.926Z,77.13
2022-09-23T02:11:04.691Z,76.82
2022-09-23T02:13:40.009Z,76.21
2022-09-23T02:16:12.196Z,76.58
2022-09-23T02:18:46.210Z,76.88
2022-09-23T02:21:15.778Z,76.98
2022-09-23T02:23:45.827Z,76.69
2022-09-23T02:26:19.729Z,76.69
2022-09-23T02:28:56.037Z,76.75
2022-09-23T02:31:33.139Z,77.24
2022-09-23T02:34:10.537Z,77.80
2022-09-23T02:36:44.927Z,76.72
2022-09-23T02:39:14.466Z,76.96
2022-09-23T02:41:55.819Z,76.93
2022-09-23T02:44:24.097Z,77.32
2022-09-23T02:46:52.918Z,77.80
2022-09-23T02:49:23.872Z,77.50
2022-09-23T02:51:51.366Z,77.64
2022-09-23T02:54:20.859Z,77.64
2022-09-23T02:56:50.391Z,77.55
2022-09-23T02:59:19.565Z,77.25
2022-09-23T03:02:07.955Z,77.46
2022-09-23T03:04:50.513Z,78.31
2022-09-23T03:07:21.036Z,78.43
2022-09-23T03:09:54.673Z,78.87
2022-09-23T03:12:36.065Z,78.60
2022-09-23T03:15:16.972Z,78.41
2022-09-23T03:17:51.265Z,77.97
2022-09-23T03:20:26.159Z,78.06
2022-09-23T03:23:00.868Z,77.90
2022-09-23T03:25:33.288Z,78.02
2022-09-23T03:28:01.689Z,77.92
2022-09-23T03:30:30.852Z,78.14
2022-09-23T03:33:00.973Z,78.30
2022-09-23T03:35:33.170Z,78.16
2022-09-23T03:38:08.348Z,78.54
2022-09-23T03:40:41.929Z,78.71
2022-09-23T03:43:09.912Z,78.31
2022-09-23T03:45:36.785Z,78.43
2022-09-23T03:48:04.410Z,78.83
2022-09-23T03:50:32.614Z,79.13
2022-09-23T03:52:59.437Z,78.88
2022-09-23T03:55:26.256Z,78.60
2022-09-23T03:57:53.350Z,78.70
2022-09-23T04:00:20.359Z,78.23
2022-09-23T04:02:47.203Z,78.53
2022-09-23T04:05:14.067Z,78.57
2022-09-23T04:07:42.614Z,78.43
2022-09-23T04:10:10.205Z,77.89
2022-09-23T04:12:37.755Z,78.31
2022-09-23T04:15:05.673Z,78.39
2022-09-23T04:17:32.544Z,78.31
2022-09-23T04:19:59.391Z,78.51
2022-09-23T04:22:26.248Z,78.50
2022-09-23T04:24:54.773Z,78.34
2022-09-23T04:27:21.633Z,78.50
2022-09-23T04:29:48.504Z,78.68
2022-09-23T04:32:15.414Z,78.80
2022-09-23T04:34:43.396Z,79.15
2022-09-23T04:37:10.217Z,79.15
2022-09-23T04:39:37.101Z,78.87
2022-09-23T04:42:05.587Z,78.85
2022-09-23T04:44:33.073Z,78.70
2022-09-23T04:46:59.994Z,79.01
2022-09-23T04:49:26.952Z,78.82
2022-09-23T04:51:54.295Z,79.06
2022-09-23T04:54:21.175Z,79.20
2022-09-23T04:56:48.052Z,79.42
2022-09-23T04:59:16.537Z,80.58
2022-09-23T05:01:43.794Z,83.08
2022-09-23T05:04:13.936Z,82.18
2022-09-23T05:06:43.986Z,80.49
2022-09-23T05:09:16.624Z,79.49
2022-09-23T05:11:44.290Z,79.48
2022-09-23T05:14:11.242Z,79.59
2022-09-23T05:16:39.579Z,78.48
2022-09-23T05:19:06.717Z,78.34
2022-09-23T05:21:33.603Z,78.85
2022-09-23T05:24:00.955Z,78.86
2022-09-23T05:26:30.289Z,78.21
2022-09-23T05:28:57.188Z,78.61
2022-09-23T05:31:26.237Z,77.86
2022-09-23T05:33:57.369Z,78.51
2022-09-23T05:36:25.521Z,78.06
2022-09-23T05:38:52.723Z,78.02
2022-09-23T05:41:23.129Z,78.37
2022-09-23T05:43:51.671Z,78.81
2022-09-23T05:46:20.154Z,78.47
2022-09-23T05:48:47.625Z,78.07
2022-09-23T05:51:18.457Z,78.62
2022-09-23T05:53:46.055Z,78.24
2022-09-23T05:56:14.190Z,77.67
2022-09-23T05:58:41.179Z,77.76
2022-09-23T06:01:13.312Z,77.72
2022-09-23T06:03:40.991Z,78.15
2022-09-23T06:06:14.663Z,78.05
2022-09-23T06:08:43.041Z,77.62
2022-09-23T06:11:11.632Z,77.32
2022-09-23T06:13:39.517Z,77.41
2022-09-23T06:16:08.102Z,76.70
2022-09-23T06:18:35.706Z,76.60
2022-09-23T06:21:04.810Z,75.91
2022-09-23T06:23:31.988Z,76.41
2022-09-23T06:26:05.344Z,75.71
2022-09-23T06:28:33.898Z,75.06
2022-09-23T06:31:03.289Z,74.96
2022-09-23T06:33:36.828Z,75.48
2022-09-23T06:36:05.791Z,75.00
2022-09-23T06:38:35.788Z,74.33
2022-09-23T06:41:04.283Z,73.93
2022-09-23T06:43:31.331Z,73.70
2022-09-23T06:45:59.586Z,72.97
2022-09-23T06:48:27.409Z,73.13
2022-09-23T06:50:58.148Z,72.05
2022-09-23T06:53:25.615Z,69.94
2022-09-23T06:55:58.814Z,67.19
2022-09-23T06:58:27.645Z,67.23
2022-09-23T07:00:55.163Z,66.21
2022-09-23T07:03:22.301Z,64.30
2022-09-23T07:05:49.154Z,64.12
2022-09-23T07:08:16.462Z,64.26
2022-09-23T07:10:43.275Z,64.56
2022-09-23T07:13:14.178Z,64.75
2022-09-23T07:15:49.415Z,62.98
2022-09-23T07:18:16.424Z,64.61
2022-09-23T07:20:43.244Z,62.05
2022-09-23T07:23:10.146Z,63.57
2022-09-23T07:25:36.977Z,61.58
2022-09-23T07:28:03.877Z,60.05
2022-09-23T07:30:30.735Z,62.34
2022-09-23T07:32:59.055Z,60.60
2022-09-23T07:35:28.114Z,60.16
2022-09-23T07:37:55.002Z,61.27
2022-09-23T07:40:22.077Z,62.02
2022-09-23T07:42:48.970Z,62.20
2022-09-23T07:45:15.806Z,62.46
2022-09-23T07:47:42.722Z,60.74
2022-09-23T07:50:11.597Z,61.56
2022-09-23T07:52:39.392Z,60.94
2022-09-23T07:55:07.130Z,60.00
2022-09-23T07:57:34.133Z,58.92
2022-09-23T08:00:03.835Z,63.55
2022-09-23T08:02:38.496Z,62.11
2022-09-23T08:05:06.716Z,60.35
2022-09-23T08:07:34.981Z,60.04
2022-09-23T08:10:02.684Z,59.44
2022-09-23T08:12:31.613Z,58.12
2022-09-23T08:15:00.407Z,57.04
2022-09-23T08:17:27.484Z,58.56
2022-09-23T08:19:54.349Z,58.33
2022-09-23T08:22:21.167Z,58.50
2022-09-23T08:24:49.550Z,58.91
2022-09-23T08:27:16.526Z,59.10
2022-09-23T08:29:43.326Z,58.83
2022-09-23T08:32:10.238Z,58.71
2022-09-23T08:34:37.069Z,58.34
2022-09-23T08:37:04.126Z,57.62
2022-09-23T08:39:31.341Z,55.15
2022-09-23T08:42:11.914Z,55.63
2022-09-23T08:44:47.047Z,55.82
2022-09-23T08:47:20.252Z,55.48
2022-09-23T08:49:59.430Z,54.32
2022-09-23T08:52:33.349Z,55.32
2022-09-23T08:55:01.701Z,54.58
2022-09-23T08:57:42.406Z,54.49
2022-09-23T09:00:18.801Z,52.48
2022-09-23T09:02:45.934Z,52.22
2022-09-23T09:05:16.990Z,52.15
2022-09-23T09:07:44.650Z,51.86
2022-09-23T09:10:18.741Z,55.68
2022-09-23T09:12:50.406Z,53.41
2022-09-23T09:15:24.329Z,53.94
2022-09-23T09:18:01.193Z,51.33
2022-09-23T09:20:38.966Z,52.74
2022-09-23T09:23:15.585Z,53.25
2022-09-23T09:25:44.789Z,52.10
2022-09-23T09:28:19.111Z,50.25
2022-09-23T09:30:50.436Z,51.37
2022-09-23T09:33:18.991Z,51.90
2022-09-23T09:36:03.948Z,49.23
2022-09-23T09:38:31.850Z,49.64
2022-09-23T09:41:09.166Z,50.21
2022-09-23T09:43:44.043Z,49.73
2022-09-23T09:46:26.412Z,46.85
2022-09-23T09:48:57.942Z,48.25
2022-09-23T09:51:27.399Z,46.33
2022-09-23T09:53:56.081Z,47.19
2022-09-23T09:56:31.202Z,46.36
2022-09-23T09:59:02.007Z,45.70
2022-09-23T10:01:31.145Z,46.31
2022-09-23T10:04:00.771Z,44.95
2022-09-23T10:06:29.560Z,45.02
2022-09-23T10:09:15.267Z,44.31
2022-09-23T10:11:44.580Z,46.12
2022-09-23T10:14:17.574Z,42.86
2022-09-23T10:16:45.571Z,42.04
2022-09-23T10:19:22.106Z,42.52
2022-09-23T10:21:57.045Z,40.76
2022-09-23T10:24:26.083Z,43.54
2022-09-23T10:26:58.084Z,39.65
2022-09-23T10:29:31.037Z,41.04
2022-09-23T10:32:25.585Z,42.44
2022-09-23T10:34:55.666Z,42.83
2022-09-23T10:37:37.461Z,38.82
2022-09-23T10:40:33.811Z,39.78
2022-09-23T10:43:36.716Z,39.27
2022-09-23T10:46:26.744Z,40.31
2022-09-23T10:49:16.574Z,40.84
2022-09-23T10:51:52.129Z,39.96
2022-09-23T10:54:31.764Z,39.13
2022-09-23T10:57:27.522Z,40.64
2022-09-23T11:00:02.555Z,40.10
2022-09-23T11:02:55.454Z,38.46
2022-09-23T11:05:41.506Z,41.29
2022-09-23T11:08:27.502Z,39.34
2022-09-23T11:11:09.958Z,39.29
2022-09-23T11:13:54.153Z,40.38
2022-09-23T11:16:32.045Z,40.83
2022-09-23T11:19:12.447Z,41.82
2022-09-23T11:22:14.100Z,42.39
2022-09-23T11:24:50.164Z,40.63
2022-09-23T11:27:27.403Z,41.60
2022-09-23T11:30:03.406Z,39.01
2022-09-23T11:32:55.867Z,38.89
2022-09-23T11:35:29.477Z,38.54
2022-09-23T11:38:02.115Z,37.33
2022-09-23T11:40:33.070Z,37.42
2022-09-23T11:43:04.249Z,39.18
2022-09-23T11:45:34.641Z,40.49
2022-09-23T11:48:09.772Z,41.08
2022-09-23T11:50:42.976Z,39.08
2022-09-23T11:53:18.790Z,40.96
2022-09-23T11:55:58.027Z,39.41
2022-09-23T11:58:29.657Z,40.66
2022-09-23T12:01:01.213Z,38.96
2022-09-23T12:03:44.477Z,37.70
2022-09-23T12:06:18.631Z,38.80
2022-09-23T12:08:45.655Z,37.55
2022-09-23T12:11:25.368Z,39.45
2022-09-23T12:14:05.258Z,37.17
2022-09-23T12:16:50.723Z,38.36
2022-09-23T12:19:38.765Z,39.74
2022-09-23T12:22:25.659Z,41.50
2022-09-23T12:24:59.581Z,39.06
2022-09-23T12:27:32.618Z,38.40
2022-09-23T12:30:02.988Z,40.60
2022-09-23T12:32:30.980Z,38.92
2022-09-23T12:34:58.268Z,40.87
2022-09-23T12:37:31.678Z,39.50
2022-09-23T12:40:02.246Z,40.57
2022-09-23T12:42:31.324Z,40.95
2022-09-23T12:45:34.805Z,40.01
2022-09-23T12:48:03.244Z,40.23
2022-09-23T12:51:13.362Z,40.57
2022-09-23T12:54:01.626Z,41.35
2022-09-23T12:56:59.176Z,41.69
2022-09-23T12:59:28.209Z,40.36
2022-09-23T13:01:56.250Z,40.02
2022-09-23T13:05:01.184Z,42.00
2022-09-23T13:07:32.068Z,40.73
2022-09-23T13:10:08.964Z,41.74
2022-09-23T13:12:39.526Z,41.01
2022-09-23T13:15:17.002Z,41.91
2022-09-23T13:17:43.914Z,42.56
2022-09-23T13:20:38.283Z,42.34
2022-09-23T13:23:24.181Z,43.69
2022-09-23T13:25:55.620Z,41.83
2022-09-23T13:28:41.727Z,42.09
2022-09-23T13:31:15.960Z,42.91
2022-09-23T13:33:46.177Z,43.85
2022-09-23T13:36:16.326Z,41.68
2022-09-23T13:38:43.626Z,44.12
2022-09-23T13:41:15.231Z,42.24
2022-09-23T13:43:45.377Z,43.10
2022-09-23T13:46:16.266Z,43.82
2022-09-23T13:48:45.362Z,43.05
2022-09-23T13:51:21.722Z,43.67
2022-09-23T13:53:53.691Z,43.35
2022-09-23T13:56:24.915Z,43.50
2022-09-23T13:58:52.354Z,43.47
2022-09-23T14:01:24.486Z,44.27
2022-09-23T14:03:51.497Z,45.96
2022-09-23T14:06:18.554Z,45.00
2022-09-23T14:08:48.289Z,43.64
2022-09-23T14:11:16.574Z,44.86
2022-09-23T14:13:47.045Z,45.25
2022-09-23T14:16:16.079Z,43.87
2022-09-23T14:18:45.418Z,45.30
2022-09-23T14:21:30.251Z,45.34
2022-09-23T14:23:57.165Z,44.84
2022-09-23T14:26:24.789Z,44.59
2022-09-23T14:28:53.994Z,43.61
2022-09-23T14:31:20.983Z,43.30
2022-09-23T14:33:47.943Z,44.24
2022-09-23T14:36:36.336Z,45.61
2022-09-23T14:39:05.270Z,44.07
2022-09-23T14:41:37.156Z,42.08
2022-09-23T14:44:07.338Z,42.97
2022-09-23T14:46:37.027Z,42.00
2022-09-23T14:49:07.757Z,43.03
2022-09-23T14:51:44.600Z,43.14
2022-09-23T14:54:35.266Z,44.42
2022-09-23T14:57:05.938Z,45.53
2022-09-23T14:59:36.626Z,43.75
2022-09-23T15:02:31.430Z,44.91
2022-09-23T15:05:14.650Z,44.91
2022-09-23T15:07:44.077Z,45.13
2022-09-23T15:10:19.963Z,44.63
2022-09-23T15:12:49.094Z,46.39
2022-09-23T15:15:18.749Z,44.58
2022-09-23T15:17:46.628Z,44.13
2022-09-23T15:20:23.924Z,47.65
2022-09-23T15:22:54.086Z,44.57
2022-09-23T15:25:28.090Z,44.36
2022-09-23T15:28:01.098Z,44.82
2022-09-23T15:30:31.580Z,45.77
2022-09-23T15:32:58.590Z,47.51
2022-09-23T15:35:26.704Z,48.14
2022-09-23T15:37:58.442Z,46.86
2022-09-23T15:40:27.259Z,46.54
2022-09-23T15:42:56.388Z,45.72
2022-09-23T15:45:31.451Z,46.46
2022-09-23T15:48:03.259Z,47.10
2022-09-23T15:50:31.325Z,47.35
2022-09-23T15:52:58.326Z,46.50
2022-09-23T15:55:25.294Z,46.96
2022-09-23T15:57:52.671Z,46.78
2022-09-23T16:00:19.873Z,47.55
2022-09-23T16:02:49.398Z,46.97
2022-09-23T16:05:26.648Z,46.42
2022-09-23T16:07:53.519Z,47.08
2022-09-23T16:10:22.067Z,46.76
2022-09-23T16:12:49.948Z,47.46
2022-09-23T16:15:19.552Z,47.45
2022-09-23T16:17:47.801Z,47.37
2022-09-23T16:20:16.869Z,47.73
2022-09-23T16:22:48.296Z,48.71
2022-09-23T16:25:15.658Z,49.71
2022-09-23T16:27:42.469Z,48.55
2022-09-23T16:30:11.008Z,48.34
2022-09-23T16:32:38.242Z,48.97
2022-09-23T16:35:08.438Z,49.19
2022-09-23T16:37:35.345Z,49.74
2022-09-23T16:40:04.241Z,50.30
2022-09-23T16:42:31.220Z,50.85
2022-09-23T16:44:58.039Z,50.42
2022-09-23T16:47:24.993Z,51.11
2022-09-23T16:49:51.857Z,50.86
2022-09-23T16:52:20.098Z,50.48
2022-09-23T16:54:48.037Z,50.71
2022-09-23T16:57:15.141Z,52.62
2022-09-23T17:00:00.413Z,51.93
2022-09-23T17:02:45.810Z,52.78
2022-09-23T17:05:16.390Z,53.40
2022-09-23T17:07:44.807Z,54.15
2022-09-23T17:10:12.015Z,54.76
2022-09-23T17:12:38.858Z,55.23
2022-09-23T17:15:07.432Z,55.12
2022-09-23T17:17:37.058Z,55.50
2022-09-23T17:20:05.823Z,56.07
2022-09-23T17:22:33.617Z,56.45
2022-09-23T17:25:03.869Z,57.75
2022-09-23T17:27:31.993Z,57.83
2022-09-23T17:29:59.120Z,57.41
2022-09-23T17:32:26.774Z,57.95
2022-09-23T17:34:53.606Z,58.52
2022-09-23T17:37:20.418Z,60.16
2022-09-23T17:39:47.291Z,61.24
2022-09-23T17:42:15.706Z,61.04
2022-09-23T17:44:42.619Z,60.47
2022-09-23T17:47:10.571Z,60.55
2022-09-23T17:49:37.392Z,60.65
2022-09-23T17:52:05.779Z,60.60
2022-09-23T17:54:32.772Z,60.73
2022-09-23T17:56:59.962Z,61.22
2022-09-23T17:59:28.468Z,60.65
2022-09-23T18:01:55.408Z,60.62
2022-09-23T18:04:22.401Z,61.50
2022-09-23T18:06:49.276Z,61.82
2022-09-23T18:09:16.106Z,62.38
2022-09-23T18:11:45.094Z,62.59
2022-09-23T18:14:15.560Z,63.00
2022-09-23T18:16:45.820Z,63.95
2022-09-23T18:19:14.583Z,63.41
2022-09-23T18:21:43.304Z,64.50
2022-09-23T18:24:31.187Z,64.26
2022-09-23T18:26:59.886Z,63.45
2022-09-23T18:29:26.996Z,64.34
2022-09-23T18:31:55.408Z,63.81
2022-09-23T18:34:23.673Z,64.17
2022-09-23T18:36:50.852Z,64.07
2022-09-23T18:39:18.031Z,64.27
2022-09-23T18:41:44.906Z,64.24
2022-09-23T18:44:11.822Z,64.48
2022-09-23T18:46:38.763Z,64.80
2022-09-23T18:49:25.651Z,65.58
2022-09-23T18:51:55.600Z,67.12
2022-09-23T18:54:23.168Z,66.63
2022-09-23T18:56:52.533Z,66.20
2022-09-23T18:59:21.306Z,66.43
2022-09-23T19:01:50.187Z,66.39
2022-09-23T19:04:20.777Z,66.30
2022-09-23T19:06:48.061Z,66.46
2022-09-23T19:09:15.961Z,66.83
2022-09-23T19:11:43.012Z,66.67
2022-09-23T19:14:11.491Z,66.54
2022-09-23T19:16:39.615Z,66.06
2022-09-23T19:19:07.135Z,65.68
2022-09-23T19:21:35.717Z,65.40
2022-09-23T19:24:05.080Z,65.15
2022-09-23T19:26:34.858Z,65.67
2022-09-23T19:29:03.245Z,65.32
2022-09-23T19:31:33.433Z,65.37
2022-09-23T19:34:02.402Z,65.01
2022-09-23T19:36:30.967Z,65.08
2022-09-23T19:39:02.905Z,65.13
2022-09-23T19:41:35.445Z,65.44
2022-09-23T19:44:03.832Z,65.99
2022-09-23T19:46:32.464Z,66.64
2022-09-23T19:49:00.486Z,66.92
2022-09-23T19:51:28.329Z,67.77
2022-09-23T19:53:55.137Z,68.64
2022-09-23T19:56:23.514Z,68.56
2022-09-23T19:58:54.261Z,70.03
2022-09-23T20:01:21.808Z,69.53
2022-09-23T20:03:49.487Z,69.43
2022-09-23T20:06:17.567Z,69.41
2022-09-23T20:08:45.022Z,69.08
2022-09-23T20:11:13.715Z,68.99
2022-09-23T20:13:49.602Z,69.11
2022-09-23T20:16:18.136Z,68.88
2022-09-23T20:18:46.791Z,68.81
2022-09-23T20:21:15.425Z,68.91
2022-09-23T20:23:42.707Z,69.42
2022-09-23T20:26:28.938Z,69.59
2022-09-23T20:29:00.931Z,69.47
2022-09-23T20:31:28.822Z,69.71
2022-09-23T20:33:58.501Z,70.85
2022-09-23T20:36:25.824Z,73.17
2022-09-23T20:38:56.427Z,73.55
2022-09-23T20:41:23.421Z,71.77
2022-09-23T20:43:53.443Z,71.18
2022-09-23T20:46:24.890Z,71.63
2022-09-23T20:48:52.168Z,71.45
2022-09-23T20:51:18.979Z,71.27
2022-09-23T20:53:48.485Z,71.20
2022-09-23T20:56:16.496Z,70.86
2022-09-23T20:58:44.575Z,70.71
2022-09-23T21:01:11.907Z,71.33
2022-09-23T21:03:41.875Z,71.39
2022-09-23T21:06:10.781Z,71.46
2022-09-23T21:08:38.018Z,71.29
2022-09-23T21:11:08.067Z,71.65
2022-09-23T21:13:35.321Z,71.92
2022-09-23T21:16:03.070Z,72.25
2022-09-23T21:18:30.145Z,72.15
2022-09-23T21:20:59.730Z,72.08
2022-09-23T21:23:27.537Z,71.63
2022-09-23T21:26:00.337Z,71.63
2022-09-23T21:28:30.963Z,71.33
2022-09-23T21:30:58.731Z,71.24
2022-09-23T21:33:25.902Z,71.41
2022-09-23T21:35:54.447Z,71.82
2022-09-23T21:38:23.124Z,71.94
2022-09-23T21:40:55.791Z,72.19
2022-09-23T21:43:23.595Z,72.50
2022-09-23T21:45:56.997Z,72.47
2022-09-23T21:48:24.333Z,72.54
2022-09-23T21:50:54.960Z,72.43
2022-09-23T21:53:23.888Z,72.50
2022-09-23T21:55:51.148Z,72.66
2022-09-23T21:58:18.054Z,71.92
2022-09-23T22:00:45.253Z,73.11
2022-09-23T22:03:12.374Z,73.42
2022-09-23T22:05:44.015Z,73.14
2022-09-23T22:08:10.740Z,73.53
2022-09-23T22:10:38.988Z,73.27
2022-09-23T22:13:12.543Z,73.42
2022-09-23T22:15:39.867Z,74.21
2022-09-23T22:18:06.764Z,74.85
2022-09-23T22:20:34.222Z,75.34
2022-09-23T22:23:01.128Z,78.93
2022-09-23T22:25:28.860Z,77.48
2022-09-23T22:28:15.860Z,75.83
2022-09-23T22:31:01.038Z,75.36
2022-09-23T22:33:27.954Z,75.81
2022-09-23T22:36:01.741Z,75.00
2022-09-23T22:38:28.805Z,75.43
2022-09-23T22:40:55.735Z,76.12
2022-09-23T22:43:24.004Z,76.57
2022-09-23T22:45:51.606Z,77.48
2022-09-23T22:48:19.894Z,78.16
2022-09-23T22:50:46.803Z,77.85
2022-09-23T22:53:13.959Z,76.24
2022-09-23T22:55:42.117Z,75.96
2022-09-23T22:58:30.768Z,78.30
2022-09-23T23:00:58.228Z,78.65
2022-09-23T23:03:27.047Z,76.95
2022-09-23T23:05:57.620Z,76.99
2022-09-23T23:08:24.672Z,76.49
2022-09-23T23:10:51.648Z,76.09
2022-09-23T23:13:19.224Z,77.55
2022-09-23T23:15:46.109Z,78.56
2022-09-23T23:18:14.909Z,78.40
2022-09-23T23:20:41.825Z,77.06
2022-09-23T23:23:08.672Z,76.78
2022-09-23T23:25:35.483Z,75.98
2022-09-23T23:28:05.590Z,76.11
2022-09-23T23:30:33.603Z,75.96
2022-09-23T23:33:00.582Z,76.10
2022-09-23T23:35:28.841Z,75.80
2022-09-23T23:37:55.768Z,76.45
2022-09-23T23:40:22.842Z,77.33
2022-09-23T23:42:49.767Z,76.64
2022-09-23T23:45:17.429Z,76.60
2022-09-23T23:47:44.621Z,76.50
2022-09-23T23:50:11.495Z,76.05
2022-09-23T23:52:39.789Z,75.91
2022-09-23T23:55:07.112Z,76.84
2022-09-23T23:57:33.973Z,77.53
